sensor_id;sensor_type;location;lat;lon;timestamp;P1;durP1;ratioP1;P2;durP2;ratioP2
55150;SDS011;41041;43.162;20.538;2022-10-26T00:00:26;38.15;;;16.60;;
55150;SDS011;41041;43.162;20.538;2022-10-26T00:02:53;34.90;;;16.10;;
55150;SDS011;41041;43.162;20.538;2022-10-26T00:05:19;36.78;;;16.73;;
55150;SDS011;41041;43.162;20.538;2022-10-26T00:07:46;29.77;;;14.98;;
55150;SDS011;41041;43.162;20.538;2022-10-26T00:10:12;32.67;;;14.95;;
55150;SDS011;41041;43.162;20.538;2022-10-26T00:12:38;34.08;;;16.20;;
55150;SDS011;41041;43.162;20.538;2022-10-26T00:15:04;35.10;;;15.95;;
55150;SDS011;41041;43.162;20.538;2022-10-26T00:17:30;36.35;;;17.45;;
55150;SDS011;41041;43.162;20.538;2022-10-26T00:19:56;45.05;;;15.75;;
55150;SDS011;41041;43.162;20.538;2022-10-26T00:22:22;35.42;;;15.45;;
55150;SDS011;41041;43.162;20.538;2022-10-26T00:24:47;38.08;;;14.90;;
55150;SDS011;41041;43.162;20.538;2022-10-26T00:27:13;35.40;;;15.25;;
55150;SDS011;41041;43.162;20.538;2022-10-26T00:29:39;33.03;;;14.70;;
55150;SDS011;41041;43.162;20.538;2022-10-26T00:32:05;32.00;;;14.50;;
55150;SDS011;41041;43.162;20.538;2022-10-26T00:34:31;34.72;;;14.18;;
55150;SDS011;41041;43.162;20.538;2022-10-26T00:36:56;33.38;;;14.70;;
55150;SDS011;41041;43.162;20.538;2022-10-26T00:39:22;35.42;;;14.05;;
55150;SDS011;41041;43.162;20.538;2022-10-26T00:41:48;31.60;;;13.40;;
55150;SDS011;41041;43.162;20.538;2022-10-26T00:47:10;32.85;;;14.32;;
55150;SDS011;41041;43.162;20.538;2022-10-26T00:49:47;26.80;;;13.38;;
55150;SDS011;41041;43.162;20.538;2022-10-26T00:52:15;30.08;;;13.73;;
55150;SDS011;41041;43.162;20.538;2022-10-26T00:54:42;31.35;;;12.80;;
55150;SDS011;41041;43.162;20.538;2022-10-26T00:57:18;31.05;;;12.00;;
55150;SDS011;41041;43.162;20.538;2022-10-26T00:59:47;28.38;;;14.52;;
55150;SDS011;41041;43.162;20.538;2022-10-26T01:02:16;29.45;;;13.88;;
55150;SDS011;41041;43.162;20.538;2022-10-26T01:04:41;28.17;;;13.50;;
55150;SDS011;41041;43.162;20.538;2022-10-26T01:07:10;30.15;;;13.43;;
55150;SDS011;41041;43.162;20.538;2022-10-26T01:09:37;31.92;;;14.00;;
55150;SDS011;41041;43.162;20.538;2022-10-26T01:12:04;30.08;;;14.30;;
55150;SDS011;41041;43.162;20.538;2022-10-26T01:14:29;26.75;;;12.95;;
55150;SDS011;41041;43.162;20.538;2022-10-26T01:22:11;32.15;;;12.95;;
55150;SDS011;41041;43.162;20.538;2022-10-26T01:24:49;27.80;;;12.98;;
55150;SDS011;41041;43.162;20.538;2022-10-26T01:38:41;28.17;;;14.18;;
55150;SDS011;41041;43.162;20.538;2022-10-26T01:46:55;23.98;;;11.55;;
55150;SDS011;41041;43.162;20.538;2022-10-26T01:49:27;26.15;;;12.65;;
55150;SDS011;41041;43.162;20.538;2022-10-26T01:51:57;29.77;;;12.95;;
55150;SDS011;41041;43.162;20.538;2022-10-26T01:54:22;29.48;;;13.07;;
55150;SDS011;41041;43.162;20.538;2022-10-26T01:56:54;27.02;;;12.27;;
55150;SDS011;41041;43.162;20.538;2022-10-26T01:59:26;25.40;;;12.50;;
55150;SDS011;41041;43.162;20.538;2022-10-26T02:13:46;27.45;;;11.90;;
55150;SDS011;41041;43.162;20.538;2022-10-26T02:21:34;31.33;;;13.20;;
55150;SDS011;41041;43.162;20.538;2022-10-26T02:24:05;30.25;;;13.50;;
55150;SDS011;41041;43.162;20.538;2022-10-26T02:26:34;30.93;;;13.53;;
55150;SDS011;41041;43.162;20.538;2022-10-26T02:29:04;26.70;;;13.45;;
55150;SDS011;41041;43.162;20.538;2022-10-26T02:31:33;29.23;;;12.95;;
55150;SDS011;41041;43.162;20.538;2022-10-26T02:34:01;28.00;;;13.18;;
55150;SDS011;41041;43.162;20.538;2022-10-26T02:36:31;28.52;;;13.35;;
55150;SDS011;41041;43.162;20.538;2022-10-26T02:39:00;31.23;;;13.68;;
55150;SDS011;41041;43.162;20.538;2022-10-26T02:41:27;28.08;;;13.43;;
55150;SDS011;41041;43.162;20.538;2022-10-26T02:44:12;30.08;;;13.15;;
55150;SDS011;41041;43.162;20.538;2022-10-26T02:46:42;28.48;;;13.35;;
55150;SDS011;41041;43.162;20.538;2022-10-26T02:49:09;29.20;;;13.38;;
55150;SDS011;41041;43.162;20.538;2022-10-26T02:51:48;28.85;;;13.20;;
55150;SDS011;41041;43.162;20.538;2022-10-26T02:57:19;29.30;;;14.10;;
55150;SDS011;41041;43.162;20.538;2022-10-26T02:59:50;28.27;;;13.65;;
55150;SDS011;41041;43.162;20.538;2022-10-26T03:02:17;28.40;;;12.70;;
55150;SDS011;41041;43.162;20.538;2022-10-26T03:04:44;26.25;;;12.68;;
55150;SDS011;41041;43.162;20.538;2022-10-26T03:09:55;24.88;;;12.00;;
55150;SDS011;41041;43.162;20.538;2022-10-26T03:12:21;28.17;;;11.93;;
55150;SDS011;41041;43.162;20.538;2022-10-26T03:14:47;23.33;;;11.48;;
55150;SDS011;41041;43.162;20.538;2022-10-26T03:17:13;22.67;;;11.45;;
55150;SDS011;41041;43.162;20.538;2022-10-26T03:19:38;29.00;;;11.85;;
55150;SDS011;41041;43.162;20.538;2022-10-26T03:22:04;23.92;;;11.43;;
55150;SDS011;41041;43.162;20.538;2022-10-26T03:24:30;21.83;;;10.82;;
55150;SDS011;41041;43.162;20.538;2022-10-26T03:26:56;23.20;;;11.30;;
55150;SDS011;41041;43.162;20.538;2022-10-26T03:29:22;26.92;;;11.15;;
55150;SDS011;41041;43.162;20.538;2022-10-26T03:31:48;26.30;;;10.88;;
55150;SDS011;41041;43.162;20.538;2022-10-26T03:34:18;27.27;;;11.65;;
55150;SDS011;41041;43.162;20.538;2022-10-26T03:36:44;28.27;;;10.82;;
55150;SDS011;41041;43.162;20.538;2022-10-26T03:39:10;29.25;;;10.77;;
55150;SDS011;41041;43.162;20.538;2022-10-26T03:41:36;24.00;;;10.25;;
55150;SDS011;41041;43.162;20.538;2022-10-26T03:44:02;26.23;;;11.18;;
55150;SDS011;41041;43.162;20.538;2022-10-26T03:46:27;22.90;;;10.68;;
55150;SDS011;41041;43.162;20.538;2022-10-26T03:48:53;22.60;;;9.55;;
55150;SDS011;41041;43.162;20.538;2022-10-26T03:51:19;24.30;;;10.95;;
55150;SDS011;41041;43.162;20.538;2022-10-26T03:53:44;28.02;;;15.90;;
55150;SDS011;41041;43.162;20.538;2022-10-26T03:56:10;34.85;;;12.38;;
55150;SDS011;41041;43.162;20.538;2022-10-26T03:58:36;29.77;;;12.02;;
55150;SDS011;41041;43.162;20.538;2022-10-26T04:01:01;27.52;;;13.60;;
55150;SDS011;41041;43.162;20.538;2022-10-26T04:03:30;49.13;;;13.82;;
55150;SDS011;41041;43.162;20.538;2022-10-26T04:05:59;31.85;;;13.18;;
55150;SDS011;41041;43.162;20.538;2022-10-26T04:08:25;35.95;;;14.52;;
55150;SDS011;41041;43.162;20.538;2022-10-26T04:13:20;28.17;;;13.30;;
55150;SDS011;41041;43.162;20.538;2022-10-26T04:15:46;27.45;;;12.63;;
55150;SDS011;41041;43.162;20.538;2022-10-26T04:18:18;28.60;;;11.38;;
55150;SDS011;41041;43.162;20.538;2022-10-26T04:20:44;30.83;;;13.10;;
55150;SDS011;41041;43.162;20.538;2022-10-26T04:23:12;28.15;;;12.48;;
55150;SDS011;41041;43.162;20.538;2022-10-26T04:25:39;35.20;;;15.05;;
55150;SDS011;41041;43.162;20.538;2022-10-26T04:28:07;32.45;;;12.80;;
55150;SDS011;41041;43.162;20.538;2022-10-26T04:30:33;27.20;;;12.45;;
55150;SDS011;41041;43.162;20.538;2022-10-26T04:32:59;23.95;;;12.18;;
55150;SDS011;41041;43.162;20.538;2022-10-26T04:35:26;28.48;;;14.18;;
55150;SDS011;41041;43.162;20.538;2022-10-26T04:37:58;31.77;;;14.45;;
55150;SDS011;41041;43.162;20.538;2022-10-26T04:40:25;43.92;;;17.63;;
55150;SDS011;41041;43.162;20.538;2022-10-26T04:42:52;45.00;;;19.92;;
55150;SDS011;41041;43.162;20.538;2022-10-26T04:45:18;43.33;;;20.73;;
55150;SDS011;41041;43.162;20.538;2022-10-26T04:47:44;37.05;;;16.50;;
55150;SDS011;41041;43.162;20.538;2022-10-26T04:50:10;41.78;;;16.50;;
55150;SDS011;41041;43.162;20.538;2022-10-26T04:52:42;36.63;;;17.77;;
55150;SDS011;41041;43.162;20.538;2022-10-26T04:55:08;38.53;;;17.30;;
55150;SDS011;41041;43.162;20.538;2022-10-26T04:57:34;37.30;;;18.10;;
55150;SDS011;41041;43.162;20.538;2022-10-26T05:00:01;39.33;;;19.33;;
55150;SDS011;41041;43.162;20.538;2022-10-26T05:02:27;43.38;;;18.63;;
55150;SDS011;41041;43.162;20.538;2022-10-26T05:04:53;45.42;;;17.00;;
55150;SDS011;41041;43.162;20.538;2022-10-26T05:07:19;27.95;;;15.35;;
55150;SDS011;41041;43.162;20.538;2022-10-26T05:09:45;38.45;;;15.75;;
55150;SDS011;41041;43.162;20.538;2022-10-26T05:12:11;34.38;;;15.90;;
55150;SDS011;41041;43.162;20.538;2022-10-26T05:14:36;42.35;;;15.63;;
55150;SDS011;41041;43.162;20.538;2022-10-26T05:19:32;41.15;;;20.33;;
55150;SDS011;41041;43.162;20.538;2022-10-26T05:21:57;40.58;;;21.23;;
55150;SDS011;41041;43.162;20.538;2022-10-26T05:24:24;32.67;;;14.30;;
55150;SDS011;41041;43.162;20.538;2022-10-26T05:26:50;26.42;;;12.23;;
55150;SDS011;41041;43.162;20.538;2022-10-26T05:29:15;29.60;;;14.75;;
55150;SDS011;41041;43.162;20.538;2022-10-26T05:31:41;25.98;;;11.95;;
55150;SDS011;41041;43.162;20.538;2022-10-26T05:34:07;31.42;;;12.20;;
55150;SDS011;41041;43.162;20.538;2022-10-26T05:36:32;37.55;;;15.65;;
55150;SDS011;41041;43.162;20.538;2022-10-26T05:38:58;31.08;;;16.35;;
55150;SDS011;41041;43.162;20.538;2022-10-26T05:41:24;51.08;;;21.88;;
55150;SDS011;41041;43.162;20.538;2022-10-26T05:43:56;38.60;;;15.30;;
55150;SDS011;41041;43.162;20.538;2022-10-26T05:46:22;32.85;;;13.75;;
55150;SDS011;41041;43.162;20.538;2022-10-26T05:48:48;33.65;;;15.02;;
55150;SDS011;41041;43.162;20.538;2022-10-26T05:51:14;37.85;;;14.40;;
55150;SDS011;41041;43.162;20.538;2022-10-26T05:53:40;35.53;;;14.63;;
55150;SDS011;41041;43.162;20.538;2022-10-26T05:56:39;35.25;;;15.20;;
55150;SDS011;41041;43.162;20.538;2022-10-26T05:59:03;35.40;;;19.05;;
55150;SDS011;41041;43.162;20.538;2022-10-26T06:07:12;39.38;;;14.68;;
55150;SDS011;41041;43.162;20.538;2022-10-26T06:09:49;40.92;;;13.25;;
55150;SDS011;41041;43.162;20.538;2022-10-26T06:12:15;43.15;;;19.13;;
55150;SDS011;41041;43.162;20.538;2022-10-26T06:14:42;41.70;;;19.13;;
55150;SDS011;41041;43.162;20.538;2022-10-26T06:17:14;38.53;;;20.25;;
55150;SDS011;41041;43.162;20.538;2022-10-26T06:19:58;33.30;;;19.70;;
55150;SDS011;41041;43.162;20.538;2022-10-26T06:22:51;43.30;;;23.13;;
55150;SDS011;41041;43.162;20.538;2022-10-26T06:28:29;56.42;;;30.85;;
55150;SDS011;41041;43.162;20.538;2022-10-26T06:30:56;87.75;;;35.15;;
55150;SDS011;41041;43.162;20.538;2022-10-26T06:33:27;97.93;;;37.40;;
55150;SDS011;41041;43.162;20.538;2022-10-26T06:35:56;102.47;;;40.20;;
55150;SDS011;41041;43.162;20.538;2022-10-26T06:38:34;99.13;;;37.45;;
55150;SDS011;41041;43.162;20.538;2022-10-26T06:41:11;92.60;;;36.45;;
55150;SDS011;41041;43.162;20.538;2022-10-26T06:43:43;80.50;;;37.22;;
55150;SDS011;41041;43.162;20.538;2022-10-26T06:48:56;65.90;;;28.02;;
55150;SDS011;41041;43.162;20.538;2022-10-26T06:51:26;82.40;;;33.83;;
55150;SDS011;41041;43.162;20.538;2022-10-26T06:56:23;82.47;;;33.97;;
55150;SDS011;41041;43.162;20.538;2022-10-26T06:58:50;87.75;;;37.83;;
55150;SDS011;41041;43.162;20.538;2022-10-26T07:01:18;86.40;;;34.25;;
55150;SDS011;41041;43.162;20.538;2022-10-26T07:03:44;91.97;;;39.05;;
55150;SDS011;41041;43.162;20.538;2022-10-26T07:06:11;99.72;;;41.67;;
55150;SDS011;41041;43.162;20.538;2022-10-26T07:08:37;96.28;;;43.08;;
55150;SDS011;41041;43.162;20.538;2022-10-26T07:11:03;94.60;;;45.65;;
55150;SDS011;41041;43.162;20.538;2022-10-26T07:13:29;99.47;;;46.42;;
55150;SDS011;41041;43.162;20.538;2022-10-26T07:15:55;106.07;;;53.70;;
55150;SDS011;41041;43.162;20.538;2022-10-26T07:18:21;100.53;;;49.22;;
55150;SDS011;41041;43.162;20.538;2022-10-26T07:20:47;84.75;;;44.15;;
55150;SDS011;41041;43.162;20.538;2022-10-26T07:23:13;95.00;;;44.28;;
55150;SDS011;41041;43.162;20.538;2022-10-26T07:25:39;87.05;;;42.05;;
55150;SDS011;41041;43.162;20.538;2022-10-26T07:28:08;96.25;;;42.33;;
55150;SDS011;41041;43.162;20.538;2022-10-26T07:30:35;95.18;;;45.38;;
55150;SDS011;41041;43.162;20.538;2022-10-26T07:35:35;95.15;;;43.55;;
55150;SDS011;41041;43.162;20.538;2022-10-26T07:38:01;86.32;;;41.92;;
55150;SDS011;41041;43.162;20.538;2022-10-26T07:40:28;98.82;;;46.38;;
55150;SDS011;41041;43.162;20.538;2022-10-26T07:42:57;117.95;;;52.28;;
55150;SDS011;41041;43.162;20.538;2022-10-26T07:45:25;113.25;;;52.05;;
55150;SDS011;41041;43.162;20.538;2022-10-26T07:47:51;95.93;;;48.35;;
55150;SDS011;41041;43.162;20.538;2022-10-26T07:50:17;102.80;;;47.42;;
55150;SDS011;41041;43.162;20.538;2022-10-26T07:52:43;99.35;;;44.78;;
55150;SDS011;41041;43.162;20.538;2022-10-26T07:55:09;105.90;;;46.83;;
55150;SDS011;41041;43.162;20.538;2022-10-26T07:57:35;96.95;;;46.63;;
55150;SDS011;41041;43.162;20.538;2022-10-26T08:00:03;88.65;;;43.38;;
55150;SDS011;41041;43.162;20.538;2022-10-26T08:02:30;87.88;;;42.17;;
55150;SDS011;41041;43.162;20.538;2022-10-26T08:04:56;88.38;;;40.50;;
55150;SDS011;41041;43.162;20.538;2022-10-26T08:07:22;82.47;;;37.83;;
55150;SDS011;41041;43.162;20.538;2022-10-26T08:09:49;77.40;;;36.40;;
55150;SDS011;41041;43.162;20.538;2022-10-26T08:12:15;90.05;;;38.05;;
55150;SDS011;41041;43.162;20.538;2022-10-26T08:14:41;83.40;;;38.17;;
55150;SDS011;41041;43.162;20.538;2022-10-26T08:17:07;89.88;;;37.65;;
55150;SDS011;41041;43.162;20.538;2022-10-26T08:19:33;90.45;;;37.22;;
55150;SDS011;41041;43.162;20.538;2022-10-26T08:21:59;86.45;;;37.83;;
55150;SDS011;41041;43.162;20.538;2022-10-26T08:24:25;80.97;;;38.58;;
55150;SDS011;41041;43.162;20.538;2022-10-26T08:26:51;87.40;;;38.95;;
55150;SDS011;41041;43.162;20.538;2022-10-26T08:29:16;71.72;;;34.78;;
55150;SDS011;41041;43.162;20.538;2022-10-26T08:31:42;71.20;;;33.55;;
55150;SDS011;41041;43.162;20.538;2022-10-26T08:34:08;78.30;;;34.75;;
55150;SDS011;41041;43.162;20.538;2022-10-26T08:36:34;74.10;;;34.25;;
55150;SDS011;41041;43.162;20.538;2022-10-26T08:39:00;88.90;;;35.58;;
55150;SDS011;41041;43.162;20.538;2022-10-26T08:41:36;63.78;;;29.65;;
55150;SDS011;41041;43.162;20.538;2022-10-26T08:44:09;79.40;;;29.98;;
55150;SDS011;41041;43.162;20.538;2022-10-26T08:46:37;67.25;;;28.92;;
55150;SDS011;41041;43.162;20.538;2022-10-26T08:49:17;79.00;;;25.77;;
55150;SDS011;41041;43.162;20.538;2022-10-26T08:51:48;62.22;;;25.73;;
55150;SDS011;41041;43.162;20.538;2022-10-26T08:54:26;55.53;;;24.15;;
55150;SDS011;41041;43.162;20.538;2022-10-26T08:57:24;58.95;;;23.80;;
55150;SDS011;41041;43.162;20.538;2022-10-26T09:02:34;46.13;;;19.42;;
55150;SDS011;41041;43.162;20.538;2022-10-26T09:05:00;48.17;;;17.77;;
55150;SDS011;41041;43.162;20.538;2022-10-26T09:20:48;38.85;;;15.55;;
55150;SDS011;41041;43.162;20.538;2022-10-26T09:23:25;36.38;;;14.05;;
55150;SDS011;41041;43.162;20.538;2022-10-26T09:26:12;38.10;;;15.75;;
55150;SDS011;41041;43.162;20.538;2022-10-26T09:28:39;40.13;;;16.10;;
55150;SDS011;41041;43.162;20.538;2022-10-26T09:31:08;35.60;;;14.68;;
55150;SDS011;41041;43.162;20.538;2022-10-26T09:33:39;43.53;;;14.45;;
55150;SDS011;41041;43.162;20.538;2022-10-26T09:36:09;31.75;;;14.27;;
55150;SDS011;41041;43.162;20.538;2022-10-26T09:41:13;28.08;;;14.82;;
55150;SDS011;41041;43.162;20.538;2022-10-26T09:43:49;31.90;;;15.05;;
55150;SDS011;41041;43.162;20.538;2022-10-26T09:46:20;44.60;;;14.68;;
55150;SDS011;41041;43.162;20.538;2022-10-26T09:48:48;33.83;;;11.20;;
55150;SDS011;41041;43.162;20.538;2022-10-26T09:51:17;22.25;;;11.18;;
55150;SDS011;41041;43.162;20.538;2022-10-26T09:53:44;27.58;;;11.45;;
55150;SDS011;41041;43.162;20.538;2022-10-26T09:56:11;26.77;;;10.60;;
55150;SDS011;41041;43.162;20.538;2022-10-26T09:58:57;24.00;;;11.45;;
55150;SDS011;41041;43.162;20.538;2022-10-26T10:01:29;22.97;;;9.80;;
55150;SDS011;41041;43.162;20.538;2022-10-26T10:04:15;23.45;;;9.65;;
55150;SDS011;41041;43.162;20.538;2022-10-26T10:09:33;22.83;;;8.80;;
55150;SDS011;41041;43.162;20.538;2022-10-26T10:12:00;24.17;;;8.75;;
55150;SDS011;41041;43.162;20.538;2022-10-26T10:14:31;24.50;;;8.40;;
55150;SDS011;41041;43.162;20.538;2022-10-26T10:17:07;19.70;;;7.88;;
55150;SDS011;41041;43.162;20.538;2022-10-26T10:19:35;16.10;;;7.15;;
55150;SDS011;41041;43.162;20.538;2022-10-26T10:22:11;25.52;;;8.02;;
55150;SDS011;41041;43.162;20.538;2022-10-26T10:24:39;21.15;;;8.65;;
55150;SDS011;41041;43.162;20.538;2022-10-26T10:29:51;19.35;;;7.85;;
55150;SDS011;41041;43.162;20.538;2022-10-26T10:40:32;20.00;;;7.57;;
55150;SDS011;41041;43.162;20.538;2022-10-26T10:43:11;12.20;;;6.18;;
55150;SDS011;41041;43.162;20.538;2022-10-26T10:45:42;9.73;;;5.50;;
55150;SDS011;41041;43.162;20.538;2022-10-26T10:51:08;10.18;;;3.53;;
55150;SDS011;41041;43.162;20.538;2022-10-26T11:01:40;11.60;;;4.40;;
55150;SDS011;41041;43.162;20.538;2022-10-26T11:04:26;8.75;;;3.95;;
55150;SDS011;41041;43.162;20.538;2022-10-26T11:06:58;11.68;;;4.97;;
55150;SDS011;41041;43.162;20.538;2022-10-26T11:09:26;13.02;;;4.45;;
55150;SDS011;41041;43.162;20.538;2022-10-26T11:11:53;11.60;;;3.92;;
55150;SDS011;41041;43.162;20.538;2022-10-26T11:16:54;6.05;;;3.05;;
55150;SDS011;41041;43.162;20.538;2022-10-26T11:19:25;4.70;;;2.10;;
55150;SDS011;41041;43.162;20.538;2022-10-26T11:21:56;5.97;;;2.08;;
55150;SDS011;41041;43.162;20.538;2022-10-26T11:24:30;6.85;;;3.33;;
55150;SDS011;41041;43.162;20.538;2022-10-26T11:26:58;11.98;;;3.20;;
55150;SDS011;41041;43.162;20.538;2022-10-26T11:29:32;6.10;;;2.85;;
55150;SDS011;41041;43.162;20.538;2022-10-26T11:35:19;9.75;;;3.10;;
55150;SDS011;41041;43.162;20.538;2022-10-26T11:45:24;13.85;;;3.47;;
55150;SDS011;41041;43.162;20.538;2022-10-26T11:47:51;8.30;;;3.38;;
55150;SDS011;41041;43.162;20.538;2022-10-26T11:50:28;6.72;;;2.53;;
55150;SDS011;41041;43.162;20.538;2022-10-26T11:53:16;10.82;;;3.97;;
55150;SDS011;41041;43.162;20.538;2022-10-26T11:55:51;12.07;;;4.32;;
55150;SDS011;41041;43.162;20.538;2022-10-26T11:58:27;9.85;;;3.60;;
55150;SDS011;41041;43.162;20.538;2022-10-26T12:00:54;8.27;;;3.10;;
55150;SDS011;41041;43.162;20.538;2022-10-26T12:03:27;10.57;;;3.40;;
55150;SDS011;41041;43.162;20.538;2022-10-26T12:05:55;12.50;;;3.50;;
55150;SDS011;41041;43.162;20.538;2022-10-26T12:08:29;12.35;;;3.28;;
55150;SDS011;41041;43.162;20.538;2022-10-26T12:11:00;19.55;;;3.33;;
55150;SDS011;41041;43.162;20.538;2022-10-26T12:16:03;6.40;;;2.65;;
55150;SDS011;41041;43.162;20.538;2022-10-26T12:18:33;11.15;;;2.40;;
55150;SDS011;41041;43.162;20.538;2022-10-26T12:21:03;9.65;;;2.75;;
55150;SDS011;41041;43.162;20.538;2022-10-26T12:23:38;12.23;;;2.78;;
55150;SDS011;41041;43.162;20.538;2022-10-26T12:39:29;14.02;;;4.15;;
55150;SDS011;41041;43.162;20.538;2022-10-26T12:44:38;9.38;;;2.70;;
55150;SDS011;41041;43.162;20.538;2022-10-26T12:47:05;9.18;;;2.60;;
55150;SDS011;41041;43.162;20.538;2022-10-26T12:52:17;9.70;;;2.17;;
55150;SDS011;41041;43.162;20.538;2022-10-26T12:57:37;10.32;;;2.55;;
55150;SDS011;41041;43.162;20.538;2022-10-26T13:00:12;15.25;;;3.33;;
55150;SDS011;41041;43.162;20.538;2022-10-26T13:08:13;6.18;;;2.63;;
55150;SDS011;41041;43.162;20.538;2022-10-26T13:10:42;8.52;;;3.08;;
55150;SDS011;41041;43.162;20.538;2022-10-26T13:13:38;17.15;;;7.70;;
55150;SDS011;41041;43.162;20.538;2022-10-26T13:16:05;20.58;;;8.48;;
55150;SDS011;41041;43.162;20.538;2022-10-26T13:18:46;8.55;;;4.00;;
55150;SDS011;41041;43.162;20.538;2022-10-26T13:21:16;11.95;;;3.17;;
55150;SDS011;41041;43.162;20.538;2022-10-26T13:26:27;8.30;;;3.47;;
55150;SDS011;41041;43.162;20.538;2022-10-26T13:28:54;8.48;;;2.15;;
55150;SDS011;41041;43.162;20.538;2022-10-26T13:33:57;8.32;;;2.20;;
55150;SDS011;41041;43.162;20.538;2022-10-26T13:39:40;13.57;;;2.75;;
55150;SDS011;41041;43.162;20.538;2022-10-26T13:42:12;8.52;;;2.33;;
55150;SDS011;41041;43.162;20.538;2022-10-26T13:44:49;8.02;;;2.63;;
55150;SDS011;41041;43.162;20.538;2022-10-26T13:47:31;6.20;;;2.10;;
55150;SDS011;41041;43.162;20.538;2022-10-26T13:50:14;5.30;;;1.80;;
55150;SDS011;41041;43.162;20.538;2022-10-26T13:52:46;9.60;;;1.90;;
55150;SDS011;41041;43.162;20.538;2022-10-26T14:01:01;5.35;;;3.50;;
55150;SDS011;41041;43.162;20.538;2022-10-26T14:03:33;8.73;;;2.72;;
55150;SDS011;41041;43.162;20.538;2022-10-26T14:05:59;10.85;;;2.40;;
55150;SDS011;41041;43.162;20.538;2022-10-26T14:08:28;11.80;;;2.53;;
55150;SDS011;41041;43.162;20.538;2022-10-26T14:10:54;9.93;;;4.70;;
55150;SDS011;41041;43.162;20.538;2022-10-26T14:13:25;10.23;;;3.80;;
55150;SDS011;41041;43.162;20.538;2022-10-26T14:15:55;7.40;;;2.45;;
55150;SDS011;41041;43.162;20.538;2022-10-26T14:18:25;14.27;;;2.07;;
55150;SDS011;41041;43.162;20.538;2022-10-26T14:21:02;5.97;;;2.00;;
55150;SDS011;41041;43.162;20.538;2022-10-26T14:26:03;9.95;;;3.15;;
55150;SDS011;41041;43.162;20.538;2022-10-26T14:28:30;9.57;;;2.88;;
55150;SDS011;41041;43.162;20.538;2022-10-26T14:31:12;11.90;;;2.78;;
55150;SDS011;41041;43.162;20.538;2022-10-26T14:33:46;11.50;;;2.40;;
55150;SDS011;41041;43.162;20.538;2022-10-26T14:36:12;9.07;;;2.63;;
55150;SDS011;41041;43.162;20.538;2022-10-26T14:38:45;14.20;;;2.85;;
55150;SDS011;41041;43.162;20.538;2022-10-26T14:41:15;11.25;;;3.20;;
55150;SDS011;41041;43.162;20.538;2022-10-26T14:43:42;11.48;;;4.95;;
55150;SDS011;41041;43.162;20.538;2022-10-26T14:46:13;15.25;;;7.45;;
55150;SDS011;41041;43.162;20.538;2022-10-26T14:48:48;17.42;;;7.20;;
55150;SDS011;41041;43.162;20.538;2022-10-26T14:51:18;13.93;;;6.30;;
55150;SDS011;41041;43.162;20.538;2022-10-26T14:53:49;19.95;;;5.60;;
55150;SDS011;41041;43.162;20.538;2022-10-26T14:56:19;12.38;;;5.15;;
55150;SDS011;41041;43.162;20.538;2022-10-26T14:58:52;13.52;;;4.53;;
55150;SDS011;41041;43.162;20.538;2022-10-26T15:03:59;11.63;;;4.40;;
55150;SDS011;41041;43.162;20.538;2022-10-26T15:08:55;16.45;;;5.97;;
55150;SDS011;41041;43.162;20.538;2022-10-26T15:13:49;16.52;;;5.80;;
55150;SDS011;41041;43.162;20.538;2022-10-26T15:16:19;12.38;;;3.42;;
55150;SDS011;41041;43.162;20.538;2022-10-26T15:18:47;11.25;;;2.90;;
55150;SDS011;41041;43.162;20.538;2022-10-26T15:21:37;10.20;;;3.38;;
55150;SDS011;41041;43.162;20.538;2022-10-26T15:24:09;11.50;;;2.78;;
55150;SDS011;41041;43.162;20.538;2022-10-26T15:26:41;14.70;;;3.53;;
55150;SDS011;41041;43.162;20.538;2022-10-26T15:29:29;10.82;;;3.28;;
55150;SDS011;41041;43.162;20.538;2022-10-26T15:31:58;8.30;;;3.10;;
55150;SDS011;41041;43.162;20.538;2022-10-26T15:34:24;7.22;;;3.20;;
55150;SDS011;41041;43.162;20.538;2022-10-26T15:36:50;10.00;;;3.63;;
55150;SDS011;41041;43.162;20.538;2022-10-26T15:39:16;10.48;;;3.20;;
55150;SDS011;41041;43.162;20.538;2022-10-26T15:41:46;15.15;;;4.00;;
55150;SDS011;41041;43.162;20.538;2022-10-26T15:44:14;14.43;;;3.30;;
55150;SDS011;41041;43.162;20.538;2022-10-26T15:46:41;12.77;;;3.65;;
55150;SDS011;41041;43.162;20.538;2022-10-26T15:49:13;11.75;;;3.28;;
55150;SDS011;41041;43.162;20.538;2022-10-26T15:51:39;21.38;;;3.13;;
55150;SDS011;41041;43.162;20.538;2022-10-26T15:54:05;7.05;;;3.78;;
55150;SDS011;41041;43.162;20.538;2022-10-26T15:56:31;9.13;;;3.42;;
55150;SDS011;41041;43.162;20.538;2022-10-26T15:58:57;14.30;;;4.47;;
55150;SDS011;41041;43.162;20.538;2022-10-26T16:01:27;12.85;;;3.30;;
55150;SDS011;41041;43.162;20.538;2022-10-26T16:03:53;7.43;;;3.42;;
55150;SDS011;41041;43.162;20.538;2022-10-26T16:06:27;11.05;;;3.40;;
55150;SDS011;41041;43.162;20.538;2022-10-26T16:08:54;13.65;;;3.70;;
55150;SDS011;41041;43.162;20.538;2022-10-26T16:11:21;10.60;;;3.75;;
55150;SDS011;41041;43.162;20.538;2022-10-26T16:13:47;9.75;;;3.75;;
55150;SDS011;41041;43.162;20.538;2022-10-26T16:16:14;10.10;;;4.22;;
55150;SDS011;41041;43.162;20.538;2022-10-26T16:18:42;10.57;;;3.70;;
55150;SDS011;41041;43.162;20.538;2022-10-26T16:21:11;5.65;;;3.10;;
55150;SDS011;41041;43.162;20.538;2022-10-26T16:23:38;9.25;;;3.45;;
55150;SDS011;41041;43.162;20.538;2022-10-26T16:26:04;6.65;;;3.60;;
55150;SDS011;41041;43.162;20.538;2022-10-26T16:28:30;9.93;;;4.03;;
55150;SDS011;41041;43.162;20.538;2022-10-26T16:30:57;10.70;;;4.15;;
55150;SDS011;41041;43.162;20.538;2022-10-26T16:33:27;15.95;;;5.60;;
55150;SDS011;41041;43.162;20.538;2022-10-26T16:35:53;44.40;;;17.90;;
55150;SDS011;41041;43.162;20.538;2022-10-26T16:38:22;42.97;;;22.00;;
55150;SDS011;41041;43.162;20.538;2022-10-26T16:40:48;55.90;;;28.88;;
55150;SDS011;41041;43.162;20.538;2022-10-26T16:43:19;60.88;;;34.42;;
55150;SDS011;41041;43.162;20.538;2022-10-26T16:45:45;61.93;;;34.87;;
55150;SDS011;41041;43.162;20.538;2022-10-26T16:48:11;85.45;;;37.67;;
55150;SDS011;41041;43.162;20.538;2022-10-26T16:50:40;83.05;;;33.30;;
55150;SDS011;41041;43.162;20.538;2022-10-26T16:53:06;67.43;;;33.60;;
55150;SDS011;41041;43.162;20.538;2022-10-26T16:55:32;58.05;;;29.63;;
55150;SDS011;41041;43.162;20.538;2022-10-26T16:57:58;51.63;;;24.30;;
55150;SDS011;41041;43.162;20.538;2022-10-26T17:00:24;59.65;;;28.15;;
55150;SDS011;41041;43.162;20.538;2022-10-26T17:02:50;67.40;;;34.25;;
55150;SDS011;41041;43.162;20.538;2022-10-26T17:05:18;55.10;;;30.65;;
55150;SDS011;41041;43.162;20.538;2022-10-26T17:07:45;48.15;;;22.63;;
55150;SDS011;41041;43.162;20.538;2022-10-26T17:10:11;49.83;;;26.27;;
55150;SDS011;41041;43.162;20.538;2022-10-26T17:12:37;20.33;;;9.82;;
55150;SDS011;41041;43.162;20.538;2022-10-26T17:15:03;17.55;;;8.10;;
55150;SDS011;41041;43.162;20.538;2022-10-26T17:17:29;22.00;;;10.13;;
55150;SDS011;41041;43.162;20.538;2022-10-26T17:19:56;22.05;;;10.65;;
55150;SDS011;41041;43.162;20.538;2022-10-26T17:22:22;34.20;;;16.33;;
55150;SDS011;41041;43.162;20.538;2022-10-26T17:24:48;43.83;;;26.52;;